sensor_id;sensor_type;location;lat;lon;timestamp;P1;durP1;ratioP1;P2;durP2;ratioP2
39738;SDS011;25422;48.286;8.484;2023-01-28T00:01:13;30.10;;;18.10;;
39738;SDS011;25422;48.286;8.484;2023-01-28T00:03:40;34.55;;;20.02;;
39738;SDS011;25422;48.286;8.484;2023-01-28T00:06:08;32.03;;;18.58;;
39738;SDS011;25422;48.286;8.484;2023-01-28T00:08:37;34.88;;;19.48;;
39738;SDS011;25422;48.286;8.484;2023-01-28T00:11:04;30.80;;;17.50;;
39738;SDS011;25422;48.286;8.484;2023-01-28T00:13:31;34.00;;;18.55;;
39738;SDS011;25422;48.286;8.484;2023-01-28T00:15:58;31.55;;;18.42;;
39738;SDS011;25422;48.286;8.484;2023-01-28T00:18:25;30.33;;;18.52;;
39738;SDS011;25422;48.286;8.484;2023-01-28T00:20:58;47.42;;;26.65;;
39738;SDS011;25422;48.286;8.484;2023-01-28T00:23:25;43.30;;;23.27;;
39738;SDS011;25422;48.286;8.484;2023-01-28T00:25:51;42.00;;;24.38;;
39738;SDS011;25422;48.286;8.484;2023-01-28T00:28:18;75.28;;;35.92;;
39738;SDS011;25422;48.286;8.484;2023-01-28T00:30:43;57.97;;;29.48;;
39738;SDS011;25422;48.286;8.484;2023-01-28T00:33:09;180.27;;;70.90;;
39738;SDS011;25422;48.286;8.484;2023-01-28T00:35:34;129.18;;;53.13;;
39738;SDS011;25422;48.286;8.484;2023-01-28T00:38:02;54.33;;;28.88;;
39738;SDS011;25422;48.286;8.484;2023-01-28T00:40:28;45.80;;;23.67;;
39738;SDS011;25422;48.286;8.484;2023-01-28T00:42:55;103.05;;;43.42;;
39738;SDS011;25422;48.286;8.484;2023-01-28T00:45:20;164.48;;;64.93;;
39738;SDS011;25422;48.286;8.484;2023-01-28T00:47:46;90.78;;;38.70;;
39738;SDS011;25422;48.286;8.484;2023-01-28T00:50:12;105.57;;;46.08;;
39738;SDS011;25422;48.286;8.484;2023-01-28T00:52:39;117.88;;;50.00;;
39738;SDS011;25422;48.286;8.484;2023-01-28T00:55:05;76.35;;;38.38;;
39738;SDS011;25422;48.286;8.484;2023-01-28T00:57:31;155.25;;;67.18;;
39738;SDS011;25422;48.286;8.484;2023-01-28T00:59:57;105.43;;;48.15;;
39738;SDS011;25422;48.286;8.484;2023-01-28T01:02:23;140.98;;;62.40;;
39738;SDS011;25422;48.286;8.484;2023-01-28T01:04:48;108.25;;;53.00;;
39738;SDS011;25422;48.286;8.484;2023-01-28T01:07:25;45.65;;;24.38;;
39738;SDS011;25422;48.286;8.484;2023-01-28T01:10:06;71.38;;;35.38;;
39738;SDS011;25422;48.286;8.484;2023-01-28T01:12:36;42.53;;;22.63;;
39738;SDS011;25422;48.286;8.484;2023-01-28T01:15:02;100.93;;;49.30;;
39738;SDS011;25422;48.286;8.484;2023-01-28T01:17:33;84.85;;;37.03;;
39738;SDS011;25422;48.286;8.484;2023-01-28T01:20:05;77.72;;;33.38;;
39738;SDS011;25422;48.286;8.484;2023-01-28T01:22:33;34.60;;;18.70;;
39738;SDS011;25422;48.286;8.484;2023-01-28T01:25:01;49.15;;;26.67;;
39738;SDS011;25422;48.286;8.484;2023-01-28T01:27:28;49.22;;;26.08;;
39738;SDS011;25422;48.286;8.484;2023-01-28T01:29:54;46.45;;;23.08;;
39738;SDS011;25422;48.286;8.484;2023-01-28T01:32:19;35.58;;;20.33;;
39738;SDS011;25422;48.286;8.484;2023-01-28T01:34:46;35.13;;;20.17;;
39738;SDS011;25422;48.286;8.484;2023-01-28T01:37:12;32.70;;;19.08;;
39738;SDS011;25422;48.286;8.484;2023-01-28T01:39:38;37.17;;;20.92;;
39738;SDS011;25422;48.286;8.484;2023-01-28T01:42:03;113.25;;;37.13;;
39738;SDS011;25422;48.286;8.484;2023-01-28T01:47:26;53.92;;;24.42;;
39738;SDS011;25422;48.286;8.484;2023-01-28T01:49:55;57.85;;;27.02;;
39738;SDS011;25422;48.286;8.484;2023-01-28T01:52:23;32.80;;;18.80;;
39738;SDS011;25422;48.286;8.484;2023-01-28T01:54:54;35.72;;;20.13;;
39738;SDS011;25422;48.286;8.484;2023-01-28T01:57:31;37.83;;;22.25;;
39738;SDS011;25422;48.286;8.484;2023-01-28T02:00:00;34.55;;;20.70;;
39738;SDS011;25422;48.286;8.484;2023-01-28T02:02:39;36.00;;;19.88;;
39738;SDS011;25422;48.286;8.484;2023-01-28T02:07:35;59.55;;;25.42;;
39738;SDS011;25422;48.286;8.484;2023-01-28T02:10:01;89.63;;;35.47;;
39738;SDS011;25422;48.286;8.484;2023-01-28T02:12:32;69.72;;;30.52;;
39738;SDS011;25422;48.286;8.484;2023-01-28T02:15:10;62.80;;;35.85;;
39738;SDS011;25422;48.286;8.484;2023-01-28T02:17:39;30.05;;;17.08;;
39738;SDS011;25422;48.286;8.484;2023-01-28T02:20:07;33.42;;;20.40;;
39738;SDS011;25422;48.286;8.484;2023-01-28T02:28:21;37.03;;;19.42;;
39738;SDS011;25422;48.286;8.484;2023-01-28T02:31:37;43.83;;;23.77;;
39738;SDS011;25422;48.286;8.484;2023-01-28T02:33:46;34.80;;;17.98;;
39738;SDS011;25422;48.286;8.484;2023-01-28T02:38:46;34.65;;;20.10;;
39738;SDS011;25422;48.286;8.484;2023-01-28T02:41:17;35.15;;;18.13;;
39738;SDS011;25422;48.286;8.484;2023-01-28T02:43:48;31.00;;;17.08;;
39738;SDS011;25422;48.286;8.484;2023-01-28T02:46:18;31.98;;;17.17;;
39738;SDS011;25422;48.286;8.484;2023-01-28T02:57:55;35.83;;;19.67;;
39738;SDS011;25422;48.286;8.484;2023-01-28T03:03:22;34.50;;;20.15;;
39738;SDS011;25422;48.286;8.484;2023-01-28T03:05:57;38.55;;;19.48;;
39738;SDS011;25422;48.286;8.484;2023-01-28T03:08:33;34.63;;;18.00;;
39738;SDS011;25422;48.286;8.484;2023-01-28T03:11:18;66.20;;;30.15;;
39738;SDS011;25422;48.286;8.484;2023-01-28T03:14:02;52.38;;;24.50;;
39738;SDS011;25422;48.286;8.484;2023-01-28T03:16:48;56.85;;;28.25;;
39738;SDS011;25422;48.286;8.484;2023-01-28T03:19:35;44.40;;;21.25;;
39738;SDS011;25422;48.286;8.484;2023-01-28T03:22:19;42.40;;;20.50;;
39738;SDS011;25422;48.286;8.484;2023-01-28T03:25:05;45.20;;;21.92;;
39738;SDS011;25422;48.286;8.484;2023-01-28T03:27:53;43.10;;;20.60;;
39738;SDS011;25422;48.286;8.484;2023-01-28T03:30:53;50.67;;;24.05;;
39738;SDS011;25422;48.286;8.484;2023-01-28T03:33:47;44.58;;;21.60;;
39738;SDS011;25422;48.286;8.484;2023-01-28T03:36:34;45.70;;;24.20;;
39738;SDS011;25422;48.286;8.484;2023-01-28T03:39:46;34.92;;;18.30;;
39738;SDS011;25422;48.286;8.484;2023-01-28T03:42:13;39.97;;;20.27;;
39738;SDS011;25422;48.286;8.484;2023-01-28T03:44:52;77.43;;;29.17;;
39738;SDS011;25422;48.286;8.484;2023-01-28T03:47:19;72.95;;;28.75;;
39738;SDS011;25422;48.286;8.484;2023-01-28T03:49:56;42.35;;;20.35;;
39738;SDS011;25422;48.286;8.484;2023-01-28T03:52:24;43.53;;;21.73;;
39738;SDS011;25422;48.286;8.484;2023-01-28T03:54:56;31.48;;;17.27;;
39738;SDS011;25422;48.286;8.484;2023-01-28T03:57:23;31.60;;;17.80;;
39738;SDS011;25422;48.286;8.484;2023-01-28T03:59:50;36.17;;;18.40;;
39738;SDS011;25422;48.286;8.484;2023-01-28T04:02:21;86.97;;;27.85;;
39738;SDS011;25422;48.286;8.484;2023-01-28T04:04:48;56.08;;;24.02;;
39738;SDS011;25422;48.286;8.484;2023-01-28T04:07:14;38.38;;;19.42;;
39738;SDS011;25422;48.286;8.484;2023-01-28T04:10:06;46.47;;;24.27;;
39738;SDS011;25422;48.286;8.484;2023-01-28T04:12:45;39.75;;;22.08;;
39738;SDS011;25422;48.286;8.484;2023-01-28T04:15:17;29.55;;;17.08;;
39738;SDS011;25422;48.286;8.484;2023-01-28T04:17:44;44.70;;;22.52;;
39738;SDS011;25422;48.286;8.484;2023-01-28T04:20:14;37.45;;;17.33;;
39738;SDS011;25422;48.286;8.484;2023-01-28T04:22:39;42.72;;;19.80;;
39738;SDS011;25422;48.286;8.484;2023-01-28T04:25:08;49.50;;;21.58;;
39738;SDS011;25422;48.286;8.484;2023-01-28T04:27:34;43.15;;;21.85;;
39738;SDS011;25422;48.286;8.484;2023-01-28T04:30:08;30.58;;;16.15;;
39738;SDS011;25422;48.286;8.484;2023-01-28T04:32:41;46.85;;;26.13;;
39738;SDS011;25422;48.286;8.484;2023-01-28T04:35:25;64.70;;;28.77;;
39738;SDS011;25422;48.286;8.484;2023-01-28T04:38:00;38.25;;;17.25;;
39738;SDS011;25422;48.286;8.484;2023-01-28T04:40:30;33.03;;;17.17;;
39738;SDS011;25422;48.286;8.484;2023-01-28T04:43:11;38.70;;;18.13;;
39738;SDS011;25422;48.286;8.484;2023-01-28T04:45:50;32.45;;;18.52;;
39738;SDS011;25422;48.286;8.484;2023-01-28T04:48:34;30.40;;;16.77;;
39738;SDS011;25422;48.286;8.484;2023-01-28T04:51:20;37.88;;;20.77;;
39738;SDS011;25422;48.286;8.484;2023-01-28T04:54:05;54.60;;;24.05;;
39738;SDS011;25422;48.286;8.484;2023-01-28T04:56:32;55.42;;;22.60;;
39738;SDS011;25422;48.286;8.484;2023-01-28T04:59:00;52.15;;;21.83;;
39738;SDS011;25422;48.286;8.484;2023-01-28T05:01:27;50.28;;;25.88;;
39738;SDS011;25422;48.286;8.484;2023-01-28T05:03:54;31.35;;;14.85;;
39738;SDS011;25422;48.286;8.484;2023-01-28T05:06:23;36.17;;;19.08;;
39738;SDS011;25422;48.286;8.484;2023-01-28T05:08:52;22.13;;;13.00;;
39738;SDS011;25422;48.286;8.484;2023-01-28T05:11:17;34.20;;;17.60;;
39738;SDS011;25422;48.286;8.484;2023-01-28T05:13:46;32.15;;;17.63;;
39738;SDS011;25422;48.286;8.484;2023-01-28T05:16:12;36.28;;;19.83;;
39738;SDS011;25422;48.286;8.484;2023-01-28T05:18:38;34.20;;;17.42;;
39738;SDS011;25422;48.286;8.484;2023-01-28T05:21:13;29.10;;;15.98;;
39738;SDS011;25422;48.286;8.484;2023-01-28T05:23:39;28.20;;;15.50;;
39738;SDS011;25422;48.286;8.484;2023-01-28T05:26:04;30.48;;;17.08;;
39738;SDS011;25422;48.286;8.484;2023-01-28T05:28:31;33.67;;;17.80;;
39738;SDS011;25422;48.286;8.484;2023-01-28T05:30:56;28.00;;;15.40;;
39738;SDS011;25422;48.286;8.484;2023-01-28T05:33:27;31.50;;;16.90;;
39738;SDS011;25422;48.286;8.484;2023-01-28T05:35:53;35.35;;;19.38;;
39738;SDS011;25422;48.286;8.484;2023-01-28T05:38:20;29.77;;;15.23;;
39738;SDS011;25422;48.286;8.484;2023-01-28T05:40:46;35.15;;;17.50;;
39738;SDS011;25422;48.286;8.484;2023-01-28T05:43:12;30.45;;;16.77;;
39738;SDS011;25422;48.286;8.484;2023-01-28T05:45:44;30.00;;;16.48;;
39738;SDS011;25422;48.286;8.484;2023-01-28T05:48:26;30.10;;;16.08;;
39738;SDS011;25422;48.286;8.484;2023-01-28T05:51:10;35.72;;;18.20;;
39738;SDS011;25422;48.286;8.484;2023-01-28T05:53:43;33.38;;;18.45;;
39738;SDS011;25422;48.286;8.484;2023-01-28T05:56:09;34.65;;;18.08;;
39738;SDS011;25422;48.286;8.484;2023-01-28T05:58:36;32.05;;;17.40;;
39738;SDS011;25422;48.286;8.484;2023-01-28T06:01:02;26.50;;;15.50;;
39738;SDS011;25422;48.286;8.484;2023-01-28T06:03:37;36.65;;;18.10;;
39738;SDS011;25422;48.286;8.484;2023-01-28T06:06:03;31.20;;;17.42;;
39738;SDS011;25422;48.286;8.484;2023-01-28T06:08:29;34.75;;;18.88;;
39738;SDS011;25422;48.286;8.484;2023-01-28T06:10:56;30.45;;;17.75;;
39738;SDS011;25422;48.286;8.484;2023-01-28T06:13:23;36.58;;;19.20;;
39738;SDS011;25422;48.286;8.484;2023-01-28T06:16:08;30.80;;;17.95;;
39738;SDS011;25422;48.286;8.484;2023-01-28T06:18:34;32.50;;;16.35;;
39738;SDS011;25422;48.286;8.484;2023-01-28T06:20:59;32.92;;;17.55;;
39738;SDS011;25422;48.286;8.484;2023-01-28T06:23:25;28.00;;;16.52;;
39738;SDS011;25422;48.286;8.484;2023-01-28T06:25:54;29.05;;;15.38;;
39738;SDS011;25422;48.286;8.484;2023-01-28T06:30:49;31.50;;;16.73;;
39738;SDS011;25422;48.286;8.484;2023-01-28T06:33:16;31.17;;;17.25;;
39738;SDS011;25422;48.286;8.484;2023-01-28T06:35:42;26.35;;;14.45;;
39738;SDS011;25422;48.286;8.484;2023-01-28T06:38:08;31.67;;;16.73;;
39738;SDS011;25422;48.286;8.484;2023-01-28T06:40:33;31.00;;;16.17;;
39738;SDS011;25422;48.286;8.484;2023-01-28T06:42:59;26.25;;;15.18;;
39738;SDS011;25422;48.286;8.484;2023-01-28T06:45:24;26.70;;;16.13;;
39738;SDS011;25422;48.286;8.484;2023-01-28T06:47:50;27.05;;;15.27;;
39738;SDS011;25422;48.286;8.484;2023-01-28T06:50:15;29.88;;;15.77;;
39738;SDS011;25422;48.286;8.484;2023-01-28T06:52:41;37.55;;;20.40;;
39738;SDS011;25422;48.286;8.484;2023-01-28T06:55:07;30.15;;;17.70;;
39738;SDS011;25422;48.286;8.484;2023-01-28T06:57:32;27.25;;;15.88;;
39738;SDS011;25422;48.286;8.484;2023-01-28T06:59:58;30.42;;;17.60;;
39738;SDS011;25422;48.286;8.484;2023-01-28T07:02:23;29.45;;;15.98;;
39738;SDS011;25422;48.286;8.484;2023-01-28T07:04:49;33.13;;;17.05;;
39738;SDS011;25422;48.286;8.484;2023-01-28T07:07:14;29.17;;;17.40;;
39738;SDS011;25422;48.286;8.484;2023-01-28T07:09:39;38.47;;;19.38;;
39738;SDS011;25422;48.286;8.484;2023-01-28T07:12:05;34.70;;;16.95;;
39738;SDS011;25422;48.286;8.484;2023-01-28T07:14:30;33.40;;;16.95;;
39738;SDS011;25422;48.286;8.484;2023-01-28T07:16:58;35.35;;;18.90;;
39738;SDS011;25422;48.286;8.484;2023-01-28T07:19:23;29.17;;;16.63;;
39738;SDS011;25422;48.286;8.484;2023-01-28T07:21:48;30.38;;;17.17;;
39738;SDS011;25422;48.286;8.484;2023-01-28T07:24:14;30.88;;;16.45;;
39738;SDS011;25422;48.286;8.484;2023-01-28T07:26:39;29.58;;;16.05;;
39738;SDS011;25422;48.286;8.484;2023-01-28T07:29:05;28.08;;;16.38;;
39738;SDS011;25422;48.286;8.484;2023-01-28T07:31:30;26.30;;;15.80;;
39738;SDS011;25422;48.286;8.484;2023-01-28T07:33:56;26.20;;;17.27;;
39738;SDS011;25422;48.286;8.484;2023-01-28T07:36:21;28.05;;;15.20;;
39738;SDS011;25422;48.286;8.484;2023-01-28T07:38:46;30.95;;;16.63;;
39738;SDS011;25422;48.286;8.484;2023-01-28T07:41:12;35.00;;;18.08;;
39738;SDS011;25422;48.286;8.484;2023-01-28T07:43:37;26.38;;;14.90;;
39738;SDS011;25422;48.286;8.484;2023-01-28T07:46:02;30.40;;;17.42;;
39738;SDS011;25422;48.286;8.484;2023-01-28T07:48:28;36.85;;;20.88;;
39738;SDS011;25422;48.286;8.484;2023-01-28T07:50:56;39.95;;;24.00;;
39738;SDS011;25422;48.286;8.484;2023-01-28T07:55:48;31.40;;;19.65;;
39738;SDS011;25422;48.286;8.484;2023-01-28T07:58:14;31.08;;;18.83;;
39738;SDS011;25422;48.286;8.484;2023-01-28T08:00:39;26.35;;;16.75;;
39738;SDS011;25422;48.286;8.484;2023-01-28T08:03:05;29.88;;;16.85;;
39738;SDS011;25422;48.286;8.484;2023-01-28T08:05:39;26.20;;;16.05;;
39738;SDS011;25422;48.286;8.484;2023-01-28T08:08:07;24.20;;;14.73;;
39738;SDS011;25422;48.286;8.484;2023-01-28T08:10:33;21.75;;;13.93;;
39738;SDS011;25422;48.286;8.484;2023-01-28T08:12:59;23.70;;;15.02;;
39738;SDS011;25422;48.286;8.484;2023-01-28T08:15:25;23.63;;;14.60;;
39738;SDS011;25422;48.286;8.484;2023-01-28T08:17:53;24.48;;;14.35;;
39738;SDS011;25422;48.286;8.484;2023-01-28T08:20:19;20.35;;;13.73;;
39738;SDS011;25422;48.286;8.484;2023-01-28T08:22:45;23.10;;;15.10;;
39738;SDS011;25422;48.286;8.484;2023-01-28T08:25:11;24.00;;;14.32;;
39738;SDS011;25422;48.286;8.484;2023-01-28T08:27:36;23.92;;;14.82;;
39738;SDS011;25422;48.286;8.484;2023-01-28T08:30:02;21.38;;;13.00;;
39738;SDS011;25422;48.286;8.484;2023-01-28T08:32:28;35.42;;;22.02;;
39738;SDS011;25422;48.286;8.484;2023-01-28T08:34:54;37.20;;;23.88;;
39738;SDS011;25422;48.286;8.484;2023-01-28T08:37:19;41.50;;;24.05;;
39738;SDS011;25422;48.286;8.484;2023-01-28T08:39:45;28.73;;;18.77;;
39738;SDS011;25422;48.286;8.484;2023-01-28T08:42:10;30.45;;;18.75;;
39738;SDS011;25422;48.286;8.484;2023-01-28T08:44:36;31.67;;;20.17;;
39738;SDS011;25422;48.286;8.484;2023-01-28T08:47:01;44.03;;;23.42;;
39738;SDS011;25422;48.286;8.484;2023-01-28T08:49:26;90.95;;;38.05;;
39738;SDS011;25422;48.286;8.484;2023-01-28T08:51:52;42.03;;;22.65;;
39738;SDS011;25422;48.286;8.484;2023-01-28T08:54:19;27.20;;;18.48;;
39738;SDS011;25422;48.286;8.484;2023-01-28T08:56:45;25.27;;;16.15;;
39738;SDS011;25422;48.286;8.484;2023-01-28T08:59:12;22.42;;;14.77;;
39738;SDS011;25422;48.286;8.484;2023-01-28T09:01:38;22.15;;;13.73;;
39738;SDS011;25422;48.286;8.484;2023-01-28T09:04:04;22.05;;;14.48;;
39738;SDS011;25422;48.286;8.484;2023-01-28T09:06:29;20.85;;;14.50;;
39738;SDS011;25422;48.286;8.484;2023-01-28T09:08:58;26.77;;;18.13;;
39738;SDS011;25422;48.286;8.484;2023-01-28T09:11:25;30.63;;;21.65;;
39738;SDS011;25422;48.286;8.484;2023-01-28T09:13:51;29.60;;;18.40;;
39738;SDS011;25422;48.286;8.484;2023-01-28T09:16:17;23.92;;;16.10;;
39738;SDS011;25422;48.286;8.484;2023-01-28T09:18:42;28.42;;;17.40;;
39738;SDS011;25422;48.286;8.484;2023-01-28T09:21:08;21.40;;;13.85;;
39738;SDS011;25422;48.286;8.484;2023-01-28T09:23:34;22.15;;;13.38;;
39738;SDS011;25422;48.286;8.484;2023-01-28T09:28:30;20.27;;;13.50;;
39738;SDS011;25422;48.286;8.484;2023-01-28T09:31:06;23.42;;;16.50;;
39738;SDS011;25422;48.286;8.484;2023-01-28T09:33:35;23.63;;;16.05;;
39738;SDS011;25422;48.286;8.484;2023-01-28T09:36:03;28.90;;;18.50;;
39738;SDS011;25422;48.286;8.484;2023-01-28T09:38:31;26.58;;;17.08;;
39738;SDS011;25422;48.286;8.484;2023-01-28T09:41:01;24.13;;;16.02;;
39738;SDS011;25422;48.286;8.484;2023-01-28T09:46:51;47.78;;;27.98;;
39738;SDS011;25422;48.286;8.484;2023-01-28T09:49:23;22.38;;;15.43;;
39738;SDS011;25422;48.286;8.484;2023-01-28T09:52:16;21.65;;;13.98;;
39738;SDS011;25422;48.286;8.484;2023-01-28T09:54:49;19.08;;;12.95;;
39738;SDS011;25422;48.286;8.484;2023-01-28T09:57:35;18.60;;;12.07;;
39738;SDS011;25422;48.286;8.484;2023-01-28T10:00:14;23.42;;;14.85;;
39738;SDS011;25422;48.286;8.484;2023-01-28T10:05:34;86.28;;;33.75;;
39738;SDS011;25422;48.286;8.484;2023-01-28T10:16:49;22.83;;;15.95;;
39738;SDS011;25422;48.286;8.484;2023-01-28T10:19:22;20.15;;;13.70;;
39738;SDS011;25422;48.286;8.484;2023-01-28T10:24:35;44.42;;;22.55;;
39738;SDS011;25422;48.286;8.484;2023-01-28T10:27:27;44.80;;;18.47;;
39738;SDS011;25422;48.286;8.484;2023-01-28T10:29:54;40.33;;;17.58;;
39738;SDS011;25422;48.286;8.484;2023-01-28T10:34:56;28.85;;;19.63;;
39738;SDS011;25422;48.286;8.484;2023-01-28T10:37:29;15.60;;;11.40;;
39738;SDS011;25422;48.286;8.484;2023-01-28T10:39:58;23.95;;;15.70;;
39738;SDS011;25422;48.286;8.484;2023-01-28T10:42:28;71.80;;;28.98;;
39738;SDS011;25422;48.286;8.484;2023-01-28T10:45:06;24.13;;;16.92;;
39738;SDS011;25422;48.286;8.484;2023-01-28T10:50:32;38.08;;;20.40;;
39738;SDS011;25422;48.286;8.484;2023-01-28T10:53:00;62.95;;;24.55;;
39738;SDS011;25422;48.286;8.484;2023-01-28T10:55:37;87.28;;;35.55;;
39738;SDS011;25422;48.286;8.484;2023-01-28T10:58:20;46.03;;;21.92;;
39738;SDS011;25422;48.286;8.484;2023-01-28T11:00:52;18.45;;;12.77;;
39738;SDS011;25422;48.286;8.484;2023-01-28T11:03:20;18.25;;;12.52;;
39738;SDS011;25422;48.286;8.484;2023-01-28T11:05:51;31.67;;;21.20;;
39738;SDS011;25422;48.286;8.484;2023-01-28T11:08:18;24.00;;;17.27;;
39738;SDS011;25422;48.286;8.484;2023-01-28T11:10:48;42.63;;;30.55;;
39738;SDS011;25422;48.286;8.484;2023-01-28T11:13:21;15.35;;;10.70;;
39738;SDS011;25422;48.286;8.484;2023-01-28T11:15:50;14.40;;;10.02;;
39738;SDS011;25422;48.286;8.484;2023-01-28T11:18:20;15.02;;;9.60;;
39738;SDS011;25422;48.286;8.484;2023-01-28T11:20:55;15.68;;;9.50;;
39738;SDS011;25422;48.286;8.484;2023-01-28T11:23:24;13.15;;;9.25;;
39738;SDS011;25422;48.286;8.484;2023-01-28T11:26:03;16.98;;;9.98;;
39738;SDS011;25422;48.286;8.484;2023-01-28T11:28:31;19.70;;;10.10;;
39738;SDS011;25422;48.286;8.484;2023-01-28T11:30:58;21.45;;;12.35;;
39738;SDS011;25422;48.286;8.484;2023-01-28T11:33:31;34.95;;;20.92;;
39738;SDS011;25422;48.286;8.484;2023-01-28T11:36:03;16.23;;;12.85;;
39738;SDS011;25422;48.286;8.484;2023-01-28T11:38:32;15.95;;;11.55;;
39738;SDS011;25422;48.286;8.484;2023-01-28T11:40:58;21.80;;;17.13;;
39738;SDS011;25422;48.286;8.484;2023-01-28T11:43:28;19.50;;;13.70;;
39738;SDS011;25422;48.286;8.484;2023-01-28T11:57:36;24.85;;;14.27;;
39738;SDS011;25422;48.286;8.484;2023-01-28T12:08:21;19.55;;;13.95;;
39738;SDS011;25422;48.286;8.484;2023-01-28T12:13:29;17.17;;;11.88;;
39738;SDS011;25422;48.286;8.484;2023-01-28T12:18:59;20.65;;;13.23;;
39738;SDS011;25422;48.286;8.484;2023-01-28T12:33:17;88.65;;;38.70;;
39738;SDS011;25422;48.286;8.484;2023-01-28T12:38:47;42.20;;;19.85;;
39738;SDS011;25422;48.286;8.484;2023-01-28T12:41:39;41.33;;;22.77;;
39738;SDS011;25422;48.286;8.484;2023-01-28T12:44:33;51.20;;;24.15;;
39738;SDS011;25422;48.286;8.484;2023-01-28T12:47:07;87.22;;;37.80;;
39738;SDS011;25422;48.286;8.484;2023-01-28T12:52:31;105.68;;;45.67;;
39738;SDS011;25422;48.286;8.484;2023-01-28T12:58:06;100.07;;;46.17;;
39738;SDS011;25422;48.286;8.484;2023-01-28T13:00:40;25.83;;;15.25;;
39738;SDS011;25422;48.286;8.484;2023-01-28T13:05:41;34.45;;;18.83;;
39738;SDS011;25422;48.286;8.484;2023-01-28T13:08:24;20.30;;;12.63;;
39738;SDS011;25422;48.286;8.484;2023-01-28T13:10:52;20.17;;;12.80;;
39738;SDS011;25422;48.286;8.484;2023-01-28T13:15:57;23.65;;;14.38;;
39738;SDS011;25422;48.286;8.484;2023-01-28T13:21:00;19.05;;;11.63;;
39738;SDS011;25422;48.286;8.484;2023-01-28T13:25:55;32.45;;;17.25;;
39738;SDS011;25422;48.286;8.484;2023-01-28T13:28:33;25.05;;;13.15;;
39738;SDS011;25422;48.286;8.484;2023-01-28T13:31:03;28.48;;;16.30;;
39738;SDS011;25422;48.286;8.484;2023-01-28T13:33:38;28.25;;;15.27;;
39738;SDS011;25422;48.286;8.484;2023-01-28T13:39:00;19.73;;;12.38;;
39738;SDS011;25422;48.286;8.484;2023-01-28T13:41:47;20.77;;;11.98;;
39738;SDS011;25422;48.286;8.484;2023-01-28T13:46:52;32.88;;;18.98;;
39738;SDS011;25422;48.286;8.484;2023-01-28T13:49:40;40.33;;;22.20;;
39738;SDS011;25422;48.286;8.484;2023-01-28T13:52:15;40.30;;;21.08;;
39738;SDS011;25422;48.286;8.484;2023-01-28T13:54:59;40.40;;;20.85;;
39738;SDS011;25422;48.286;8.484;2023-01-28T14:00:44;38.60;;;24.40;;
39738;SDS011;25422;48.286;8.484;2023-01-28T14:03:53;38.90;;;22.95;;
39738;SDS011;25422;48.286;8.484;2023-01-28T14:17:34;35.15;;;18.15;;
39738;SDS011;25422;48.286;8.484;2023-01-28T14:20:19;38.47;;;19.63;;
39738;SDS011;25422;48.286;8.484;2023-01-28T14:25:14;27.00;;;15.88;;
39738;SDS011;25422;48.286;8.484;2023-01-28T14:27:46;34.22;;;19.90;;
39738;SDS011;25422;48.286;8.484;2023-01-28T14:30:22;32.60;;;15.98;;
39738;SDS011;25422;48.286;8.484;2023-01-28T14:32:54;23.77;;;14.98;;
39738;SDS011;25422;48.286;8.484;2023-01-28T14:35:28;27.15;;;14.48;;
39738;SDS011;25422;48.286;8.484;2023-01-28T14:37:55;29.00;;;15.90;;
39738;SDS011;25422;48.286;8.484;2023-01-28T14:40:23;27.00;;;15.85;;
39738;SDS011;25422;48.286;8.484;2023-01-28T14:42:51;24.83;;;15.20;;
39738;SDS011;25422;48.286;8.484;2023-01-28T14:45:30;36.03;;;19.45;;
39738;SDS011;25422;48.286;8.484;2023-01-28T14:48:23;29.65;;;15.13;;
39738;SDS011;25422;48.286;8.484;2023-01-28T14:56:40;34.67;;;18.95;;
39738;SDS011;25422;48.286;8.484;2023-01-28T15:01:55;33.35;;;20.70;;
39738;SDS011;25422;48.286;8.484;2023-01-28T15:04:26;33.28;;;18.15;;
39738;SDS011;25422;48.286;8.484;2023-01-28T15:06:54;55.20;;;24.85;;
39738;SDS011;25422;48.286;8.484;2023-01-28T15:09:20;50.03;;;23.30;;
39738;SDS011;25422;48.286;8.484;2023-01-28T15:11:47;87.25;;;37.95;;
39738;SDS011;25422;48.286;8.484;2023-01-28T15:14:26;54.13;;;28.90;;
39738;SDS011;25422;48.286;8.484;2023-01-28T15:16:54;45.85;;;24.52;;
39738;SDS011;25422;48.286;8.484;2023-01-28T15:19:24;35.92;;;20.63;;
39738;SDS011;25422;48.286;8.484;2023-01-28T15:21:53;59.95;;;27.10;;
39738;SDS011;25422;48.286;8.484;2023-01-28T15:24:20;47.75;;;25.23;;
39738;SDS011;25422;48.286;8.484;2023-01-28T15:26:46;37.15;;;20.02;;
39738;SDS011;25422;48.286;8.484;2023-01-28T15:31:57;28.20;;;15.52;;
39738;SDS011;25422;48.286;8.484;2023-01-28T15:34:23;27.75;;;15.80;;
39738;SDS011;25422;48.286;8.484;2023-01-28T15:36:54;33.17;;;16.88;;
39738;SDS011;25422;48.286;8.484;2023-01-28T15:39:22;39.80;;;19.63;;
39738;SDS011;25422;48.286;8.484;2023-01-28T15:41:50;39.05;;;20.10;;
39738;SDS011;25422;48.286;8.484;2023-01-28T15:47:27;28.08;;;14.93;;
39738;SDS011;25422;48.286;8.484;2023-01-28T15:50:04;33.53;;;18.25;;
39738;SDS011;25422;48.286;8.484;2023-01-28T15:52:32;35.53;;;17.33;;
39738;SDS011;25422;48.286;8.484;2023-01-28T15:55:04;33.75;;;19.50;;
39738;SDS011;25422;48.286;8.484;2023-01-28T15:57:31;30.05;;;18.02;;
39738;SDS011;25422;48.286;8.484;2023-01-28T16:02:43;33.60;;;18.25;;
39738;SDS011;25422;48.286;8.484;2023-01-28T16:08:24;31.73;;;16.25;;
39738;SDS011;25422;48.286;8.484;2023-01-28T16:10:53;48.90;;;26.85;;
39738;SDS011;25422;48.286;8.484;2023-01-28T16:13:21;34.13;;;17.83;;
39738;SDS011;25422;48.286;8.484;2023-01-28T16:15:50;29.00;;;15.30;;
39738;SDS011;25422;48.286;8.484;2023-01-28T16:18:37;29.80;;;15.90;;
39738;SDS011;25422;48.286;8.484;2023-01-28T16:21:05;29.00;;;16.65;;
39738;SDS011;25422;48.286;8.484;2023-01-28T16:23:33;25.45;;;15.00;;
39738;SDS011;25422;48.286;8.484;2023-01-28T16:25:59;28.98;;;17.73;;
39738;SDS011;25422;48.286;8.484;2023-01-28T16:28:26;28.65;;;17.33;;
39738;SDS011;25422;48.286;8.484;2023-01-28T16:30:53;35.63;;;19.17;;
39738;SDS011;25422;48.286;8.484;2023-01-28T16:33:20;47.22;;;23.90;;
39738;SDS011;25422;48.286;8.484;2023-01-28T16:35:46;38.45;;;19.88;;
39738;SDS011;25422;48.286;8.484;2023-01-28T16:38:12;38.90;;;20.25;;
39738;SDS011;25422;48.286;8.484;2023-01-28T16:40:41;39.22;;;19.73;;
39738;SDS011;25422;48.286;8.484;2023-01-28T16:43:11;40.30;;;22.13;;
39738;SDS011;25422;48.286;8.484;2023-01-28T16:45:39;36.22;;;20.70;;
39738;SDS011;25422;48.286;8.484;2023-01-28T16:48:05;40.58;;;24.67;;
39738;SDS011;25422;48.286;8.484;2023-01-28T16:50:31;33.22;;;20.60;;
39738;SDS011;25422;48.286;8.484;2023-01-28T16:52:57;34.80;;;21.50;;
39738;SDS011;25422;48.286;8.484;2023-01-28T16:55:23;29.17;;;17.58;;
39738;SDS011;25422;48.286;8.484;2023-01-28T16:57:50;28.00;;;16.40;;
39738;SDS011;25422;48.286;8.484;2023-01-28T17:00:18;26.75;;;17.40;;
39738;SDS011;25422;48.286;8.484;2023-01-28T17:02:50;29.40;;;16.17;;
39738;SDS011;25422;48.286;8.484;2023-01-28T17:05:17;26.00;;;17.10;;
39738;SDS011;25422;48.286;8.484;2023-01-28T17:07:45;22.95;;;14.40;;
39738;SDS011;25422;48.286;8.484;2023-01-28T17:10:14;24.42;;;13.43;;
39738;SDS011;25422;48.286;8.484;2023-01-28T17:12:41;27.55;;;18.27;;
39738;SDS011;25422;48.286;8.484;2023-01-28T17:15:07;38.42;;;18.98;;